• Join FlightAware (Why Join?)
  • Login
  • US Flag 
04:35PM EST


 

Airport Tracker/Info


-or-


 

Live Flight TrackerFlight Track Log ✈ FLG3432 ✈ 03-Jul-2013 ✈ KDTW - KIND

Flight Track Log - Related Links

Times and Time Zones

All times are in EDT time to prevent confusion due to time zone crossing. See the FLG3432 flight status page for this flight to view local times or setup timezone preferences in your user account.

Time Position Orientation Groundspeed Altitude Reporting Facility
EDT Latitude Longitude Course Direction KTS MPH feet Rate Location/Type
01:02PM 42.2036 -83.3583 217° Southwest 143 165 1,500  Level Cleveland Center
01:03PM 42.1781 -83.3822 215° Southwest 180 207 2,700 2,160 Climbing Cleveland Center
01:04PM 42.1331 -83.4281 217° Southwest 217 250 5,300 2,400 Climbing Cleveland Center
01:05PM 42.0736 -83.4728 209° Southwest 252 290 7,900 2,760 Climbing Cleveland Center
01:06PM 41.9536 -83.6733 217° Southwest  Level Estimated
01:06PM 42.0078 -83.5258 211° Southwest 273 314 11,200  Level Cleveland Center
01:07PM 41.8888 -83.7529 206° Southwest  Level Estimated
01:07PM 41.9500 -83.5789 214° Southwest 265 305 14,100  Level Cleveland Center
01:08PM 41.8239 -83.8323 217° Southwest  Level Estimated
01:08PM 41.8819 -83.6317 210° Southwest 265 305 16,600  Level Cleveland Center
01:09PM 41.8158 -83.6869 212° Southwest 283 326 18,900 1,680 Climbing Cleveland Center
01:10PM 41.7411 -83.7447 210° Southwest 293 337 20,000 540 Climbing Cleveland Center
01:11PM 41.6603 -83.8072 210° Southwest 319 367 20,000  Level Cleveland Center
01:12PM 41.5750 -83.8753 211° Southwest 343 395 20,000  Level Cleveland Center
01:13PM 41.5072 -83.9269 210° Southwest 347 399 20,000  Level Chicago Center
01:14PM 41.4228 -83.9931 210° Southwest 351 404 20,000  Level Chicago Center
01:15PM 41.3392 -84.0603 211° Southwest 351 404 20,000  Level Chicago Center
01:16PM 41.2572 -84.1242 210° Southwest 342 394 20,000  Level Chicago Center
01:17PM 41.1786 -84.2203 223° Southwest 321 369 20,000  Level Chicago Center
01:19PM 41.0744 -84.3506 223° Southwest 320 368 20,000  Level Indianapolis Center
01:20PM 41.0092 -84.4331 224° Southwest 322 371 20,000  Level Indianapolis Center
01:21PM 40.9436 -84.5161 224° Southwest 323 372 20,000  Level Indianapolis Center
01:22PM 40.8661 -84.6136 224° Southwest 327 376 20,000  Level Indianapolis Center
01:23PM 40.7989 -84.6972 223° Southwest 332 382 20,000  Level Indianapolis Center
01:24PM 40.7322 -84.7803 223° Southwest 328 377 20,000  Level Indianapolis Center
01:25PM 40.6664 -84.8644 224° Southwest 328 377 20,000  Level Indianapolis Center
01:26PM 40.6028 -84.9400 222° Southwest 331 381 20,000  Level Indianapolis Center
01:27PM 40.5242 -85.0397 224° Southwest 328 377 20,000  Level Indianapolis Center
01:28PM 40.4581 -85.1219 223° Southwest 329 379 20,000 -60 Level Indianapolis Center
01:29PM 40.3911 -85.2022 222° Southwest 329 379 19,900 -420 Descending Chicago Center
01:30PM 40.3247 -85.2844 223° Southwest 326 375 19,200 -900 Descending Indianapolis Center
01:31PM 40.2592 -85.3658 223° Southwest 326 375 18,100 -1,440 Descending Indianapolis Center
01:32PM 40.2056 -85.4556 232° Southwest 316 364 16,300 -1,860 Descending Indianapolis Center
01:33PM 40.1547 -85.5522 235° Southwest 323 372 14,300 -2,160 Descending Indianapolis Center
01:34PM 40.0914 -85.6722 235° Southwest 333 383 11,900 -2,040 Descending Indianapolis Center
01:35PM 40.0414 -85.7667 235° Southwest 322 371 10,100 -1,500 Descending Indianapolis Center
01:36PM 39.9942 -85.8431 231° Southwest 278 320 8,800 -1,440 Descending Indianapolis Center
01:37PM 39.9472 -85.9147 230° Southwest 264 304 7,200 -1,440 Descending Indianapolis Center
01:38PM 39.9100 -85.9883 237° Southwest 254 292 5,900 -1,020 Descending Indianapolis Center
01:39PM 39.8825 -86.0569 242° Southwest 234 269 5,200 -1,080 Descending Indianapolis Center
01:40PM 39.8422 -86.1233 232° Southwest 212 244 3,700 -1,020 Descending Indianapolis Center
01:41PM 39.8053 -86.1703 224° Southwest 197 227 3,200 -540 Descending Indianapolis Center
01:42PM 39.7694 -86.2150 224° Southwest 187 215 2,700 -900 Descending Indianapolis Center
01:43PM 39.7378 -86.2553 224° Southwest 171 197 1,400 -1,260 Descending Indianapolis Center